Petropavlovsk, Kazakhstan
Current Conditions -  °F | °C
As of 5:30 PM on Sunday 23 Nov 2014 (Local Time) from UACP Reporting Station
Blowing Snow Blowing Snow  
Wind Chill: -21°   Ceiling: Unl
Heat Index:   Visibility: 6mi
Dew Point: -6°   Wind: 22mph
Humidity: 72%   Direction: 360°N
Pressure: 29.94"   Gusts: NA
Location:  54.87°N, 69.14°E
Report Text: UACP 231130Z 36010MPS 9999 DRSN NSC M17/M21 Q1014 R23/4/5029NOSIG RMK QFE748/0997
Loading
Personal Weather Stations






























Interactive Weather Map New forecast layout! Learn more

10-Day Weather Forecast

Advertisements
Track Severe Weather on mobile